createdAt,value
2019-06-08T00:00:34.357Z,99.90
2019-06-08T00:03:05.613Z,99.90
2019-06-08T00:05:37.724Z,99.90
2019-06-08T00:08:08.732Z,99.90
2019-06-08T00:10:40.742Z,99.90
2019-06-08T00:13:13.132Z,99.90
2019-06-08T00:15:45.129Z,99.90
2019-06-08T00:18:17.376Z,99.90
2019-06-08T00:20:48.904Z,99.90
2019-06-08T00:23:20.105Z,99.90
2019-06-08T00:25:51.338Z,99.90
2019-06-08T00:28:24.699Z,99.90
2019-06-08T00:30:56.367Z,99.90
2019-06-08T00:33:27.389Z,99.90
2019-06-08T00:35:58.667Z,99.90
2019-06-08T00:38:30.280Z,99.90
2019-06-08T00:41:01.553Z,99.90
2019-06-08T00:43:32.815Z,99.90
2019-06-08T00:46:04.695Z,99.90
2019-06-08T00:48:35.680Z,99.90
2019-06-08T00:51:07.567Z,99.90
2019-06-08T00:53:38.348Z,99.90
2019-06-08T00:56:09.945Z,99.90
2019-06-08T00:58:41.518Z,99.90
2019-06-08T01:01:13.382Z,99.90
2019-06-08T01:03:44.692Z,99.90
2019-06-08T01:06:16.547Z,99.90
2019-06-08T01:08:47.573Z,99.90
2019-06-08T01:11:18.827Z,99.90
2019-06-08T01:13:50.639Z,99.90
2019-06-08T01:16:22.876Z,99.90
2019-06-08T01:18:54.500Z,99.90
2019-06-08T01:21:25.650Z,99.90
2019-06-08T01:23:57.215Z,99.90
2019-06-08T01:26:30.183Z,99.90
2019-06-08T01:29:01.654Z,99.90
2019-06-08T01:31:33.545Z,99.90
2019-06-08T01:34:04.775Z,99.90
2019-06-08T01:36:36.343Z,99.90
2019-06-08T01:39:08.682Z,99.90
2019-06-08T01:41:40.270Z,99.90
2019-06-08T01:44:10.955Z,99.90
2019-06-08T01:46:42.292Z,99.90
2019-06-08T01:49:13.832Z,99.90
2019-06-08T01:51:45.143Z,99.90
2019-06-08T01:54:15.823Z,99.90
2019-06-08T01:56:47.068Z,99.90
2019-06-08T01:59:18.090Z,99.90
2019-06-08T02:01:49.984Z,99.90
2019-06-08T02:04:21.564Z,99.90
2019-06-08T02:06:53.195Z,99.90
2019-06-08T02:09:24.488Z,99.90
2019-06-08T02:11:56.655Z,99.90
2019-06-08T02:14:29.152Z,99.90
2019-06-08T02:17:00.294Z,99.90
2019-06-08T02:19:33.095Z,99.90
2019-06-08T02:22:04.562Z,99.90
2019-06-08T02:24:35.929Z,99.90
2019-06-08T02:27:08.973Z,99.90
2019-06-08T02:29:40.240Z,99.90
2019-06-08T02:32:11.978Z,99.90
2019-06-08T02:34:44.416Z,99.90
2019-06-08T02:37:16.117Z,99.90
2019-06-08T02:42:23.489Z,99.90
2019-06-08T02:44:55.133Z,99.90
2019-06-08T02:47:28.425Z,99.90
2019-06-08T02:50:00.813Z,99.90
2019-06-08T02:52:34.345Z,99.90
2019-06-08T02:55:07.529Z,99.90
2019-06-08T02:57:40.395Z,99.90
2019-06-08T03:00:13.734Z,99.90
2019-06-08T03:02:47.027Z,99.90
2019-06-08T03:05:21.460Z,99.90
2019-06-08T03:07:54.705Z,99.90
2019-06-08T03:13:11.563Z,99.90
2019-06-08T03:31:56.531Z,99.90
2019-06-08T03:34:27.053Z,99.90
2019-06-08T03:47:48.963Z,99.90
2019-06-08T03:50:20.875Z,99.90
2019-06-08T03:53:12.313Z,99.90
2019-06-08T03:55:47.179Z,99.90
2019-06-08T03:58:18.735Z,99.90
2019-06-08T04:00:53.517Z,99.90
2019-06-08T04:05:56.315Z,99.90
2019-06-08T04:11:11.439Z,99.90
2019-06-08T04:13:45.113Z,99.90
2019-06-08T04:16:17.984Z,99.90
2019-06-08T04:18:50.333Z,99.90
2019-06-08T04:21:21.611Z,99.90
2019-06-08T04:23:53.142Z,99.90
2019-06-08T04:26:24.444Z,99.90
2019-06-08T04:28:56.363Z,99.90
2019-06-08T04:31:27.379Z,99.90
2019-06-08T04:33:58.543Z,99.90
2019-06-08T04:36:31.352Z,99.90
2019-06-08T04:39:02.540Z,99.90
2019-06-08T04:41:34.855Z,99.90
2019-06-08T04:44:07.385Z,99.90
2019-06-08T04:46:40.759Z,99.90
2019-06-08T04:49:12.922Z,99.90
2019-06-08T04:51:45.251Z,99.90
2019-06-08T04:54:17.705Z,99.90
2019-06-08T04:56:53.797Z,99.90
2019-06-08T04:59:50.403Z,99.90
2019-06-08T05:02:44.682Z,99.90
2019-06-08T05:05:16.296Z,99.90
2019-06-08T05:07:50.239Z,99.90
2019-06-08T05:26:47.384Z,99.90
2019-06-08T05:32:32.020Z,99.90
2019-06-08T05:35:05.171Z,99.90
2019-06-08T05:37:55.841Z,99.90
2019-06-08T05:40:31.325Z,99.90
2019-06-08T05:45:57.237Z,99.90
2019-06-08T05:48:30.585Z,99.90
2019-06-08T05:51:04.672Z,99.90
2019-06-08T05:53:38.199Z,99.90
2019-06-08T05:56:27.875Z,99.90
2019-06-08T05:58:59.747Z,99.90
2019-06-08T06:01:31.236Z,99.90
2019-06-08T06:04:02.764Z,99.90
2019-06-08T06:06:34.082Z,99.90
2019-06-08T06:09:08.483Z,99.90
2019-06-08T06:11:40.674Z,99.90
2019-06-08T06:14:13.433Z,99.90
2019-06-08T06:16:47.006Z,99.90
2019-06-08T06:19:18.812Z,99.90
2019-06-08T06:21:49.677Z,99.90
2019-06-08T06:24:22.007Z,99.90
2019-06-08T06:26:53.774Z,99.90
2019-06-08T06:29:25.962Z,99.90
2019-06-08T06:31:57.845Z,99.90
2019-06-08T06:34:28.809Z,99.90
2019-06-08T06:36:59.990Z,99.90
2019-06-08T06:39:31.636Z,99.90
2019-06-08T06:42:09.264Z,99.90
2019-06-08T06:44:41.954Z,99.90
2019-06-08T06:47:13.409Z,99.90
2019-06-08T06:49:46.292Z,99.90
2019-06-08T06:52:18.079Z,99.90
2019-06-08T06:54:51.137Z,99.90
2019-06-08T06:57:22.621Z,99.90
2019-06-08T06:59:54.435Z,99.90
2019-06-08T07:02:25.942Z,99.90
2019-06-08T07:04:57.614Z,99.90
2019-06-08T07:07:29.180Z,99.90
2019-06-08T07:10:00.787Z,99.90
2019-06-08T07:12:31.861Z,99.90
2019-06-08T07:15:03.756Z,99.90
2019-06-08T07:17:35.468Z,99.90
2019-06-08T07:20:07.721Z,99.90
2019-06-08T07:22:38.831Z,99.90
2019-06-08T07:25:10.968Z,99.90
2019-06-08T07:27:41.929Z,99.90
2019-06-08T07:30:13.921Z,99.90
2019-06-08T07:32:46.542Z,99.90
2019-06-08T07:35:19.037Z,99.90
2019-06-08T07:37:51.977Z,99.90
2019-06-08T07:40:23.921Z,99.90
2019-06-08T07:42:56.605Z,99.90
2019-06-08T07:45:28.053Z,99.90
2019-06-08T07:48:00.602Z,99.90
2019-06-08T07:50:32.071Z,99.90
2019-06-08T07:53:03.249Z,99.90
2019-06-08T07:55:35.179Z,99.90
2019-06-08T07:58:06.534Z,99.90
2019-06-08T08:00:37.550Z,99.90
2019-06-08T08:03:09.189Z,99.90
2019-06-08T08:05:40.827Z,99.90
2019-06-08T08:08:12.161Z,99.90
2019-06-08T08:10:43.402Z,99.90
2019-06-08T08:13:14.705Z,99.90
2019-06-08T08:15:45.987Z,99.90
2019-06-08T08:18:17.631Z,99.90
2019-06-08T08:20:49.499Z,99.90
2019-06-08T08:23:20.551Z,99.90
2019-06-08T08:25:53.073Z,99.90
2019-06-08T08:28:24.888Z,99.90
2019-06-08T08:30:58.587Z,99.90
2019-06-08T08:33:29.213Z,99.90
2019-06-08T08:36:01.975Z,99.90
2019-06-08T08:38:33.559Z,99.90
2019-06-08T08:41:08.262Z,99.90
2019-06-08T08:43:39.082Z,99.90
2019-06-08T08:46:10.816Z,99.90
2019-06-08T08:48:42.430Z,99.90
2019-06-08T08:51:14.084Z,99.90
2019-06-08T08:53:45.108Z,99.90
2019-06-08T08:56:18.176Z,99.90
2019-06-08T08:58:51.471Z,99.90
2019-06-08T09:01:23.394Z,99.90
2019-06-08T09:03:57.128Z,99.90
2019-06-08T09:06:28.229Z,99.90
2019-06-08T09:09:03.260Z,99.90
2019-06-08T09:11:33.813Z,99.90
2019-06-08T09:14:10.958Z,99.90
2019-06-08T09:16:39.158Z,99.90
2019-06-08T09:19:10.841Z,99.90
2019-06-08T09:21:42.173Z,99.90
2019-06-08T09:24:13.763Z,99.90
2019-06-08T09:26:47.608Z,99.90
2019-06-08T09:29:19.022Z,99.90
2019-06-08T09:31:51.879Z,99.90
2019-06-08T09:34:23.222Z,99.90
2019-06-08T09:36:59.063Z,99.90
2019-06-08T09:39:28.689Z,99.90
2019-06-08T09:42:02.780Z,99.90
2019-06-08T09:44:33.217Z,99.90
2019-06-08T09:47:09.477Z,99.90
2019-06-08T09:49:37.840Z,99.90
2019-06-08T09:52:09.790Z,99.90
2019-06-08T09:54:41.403Z,99.90
2019-06-08T09:57:12.685Z,99.90
2019-06-08T09:59:44.214Z,99.90
2019-06-08T10:02:18.234Z,99.90
2019-06-08T10:04:49.574Z,99.90
2019-06-08T10:07:20.924Z,98.70
2019-06-08T10:09:52.564Z,97.30
2019-06-08T10:12:24.503Z,96.30
2019-06-08T10:14:56.729Z,95.00
2019-06-08T10:17:28.536Z,94.60
2019-06-08T10:20:01.224Z,92.00
2019-06-08T10:22:33.687Z,94.60
2019-06-08T10:25:07.995Z,92.90
2019-06-08T10:27:38.800Z,91.80
2019-06-08T10:30:10.878Z,92.50
2019-06-08T10:32:41.907Z,89.10
2019-06-08T10:35:14.361Z,90.60
2019-06-08T10:37:47.831Z,89.20
2019-06-08T10:40:19.678Z,89.50
2019-06-08T10:42:51.734Z,90.00
2019-06-08T10:45:23.836Z,91.30
2019-06-08T10:47:58.166Z,91.90
2019-06-08T10:50:28.770Z,90.20
2019-06-08T10:53:02.848Z,90.60
2019-06-08T10:55:33.513Z,90.90
2019-06-08T10:58:04.725Z,90.60
2019-06-08T11:00:38.694Z,86.80
2019-06-08T11:03:10.654Z,87.50
2019-06-08T11:05:42.456Z,88.90
2019-06-08T11:08:14.745Z,89.30
2019-06-08T11:10:47.513Z,85.90
2019-06-08T11:13:18.999Z,85.10
2019-06-08T11:15:50.617Z,88.40
2019-06-08T11:18:22.270Z,86.70
2019-06-08T11:20:54.167Z,82.40
2019-06-08T11:23:28.601Z,80.50
2019-06-08T11:26:03.624Z,78.40
2019-06-08T11:28:33.013Z,83.40
2019-06-08T11:31:05.978Z,80.40
2019-06-08T11:33:38.970Z,83.30
2019-06-08T11:36:14.776Z,84.30
2019-06-08T11:38:44.923Z,81.40
2019-06-08T11:41:18.969Z,76.50
2019-06-08T11:43:50.096Z,81.20
2019-06-08T11:46:22.012Z,77.70
2019-06-08T11:48:53.338Z,75.70
2019-06-08T11:51:23.777Z,79.70
2019-06-08T11:53:55.377Z,73.00
2019-06-08T11:56:27.813Z,75.90
2019-06-08T11:59:01.000Z,73.70
2019-06-08T12:01:32.740Z,74.60
2019-06-08T12:04:04.211Z,77.20
2019-06-08T12:06:37.726Z,76.10
2019-06-08T12:09:11.128Z,73.60
2019-06-08T12:11:42.241Z,72.40
2019-06-08T12:14:14.369Z,70.60
2019-06-08T12:16:45.195Z,73.10
2019-06-08T12:19:20.349Z,75.50
2019-06-08T12:21:50.000Z,72.30
2019-06-08T12:24:21.654Z,75.30
2019-06-08T12:26:59.942Z,70.90
2019-06-08T12:29:28.377Z,70.70
2019-06-08T12:32:00.521Z,74.10
2019-06-08T12:34:31.936Z,75.60
2019-06-08T12:37:03.126Z,72.00
2019-06-08T12:39:35.125Z,71.40
2019-06-08T12:42:09.560Z,71.10
2019-06-08T12:44:43.468Z,73.20
2019-06-08T12:47:17.642Z,70.50
2019-06-08T12:49:48.433Z,72.90
2019-06-08T12:52:22.287Z,75.60
2019-06-08T12:55:00.136Z,68.20
2019-06-08T12:57:25.564Z,69.50
2019-06-08T12:59:59.858Z,69.80
2019-06-08T13:02:30.532Z,73.10
2019-06-08T13:05:02.528Z,70.90
2019-06-08T13:07:34.109Z,72.20
2019-06-08T13:10:05.674Z,73.00
2019-06-08T13:12:40.638Z,75.20
2019-06-08T13:15:11.636Z,77.40
2019-06-08T13:17:44.059Z,77.00
2019-06-08T13:20:22.147Z,75.10
2019-06-08T13:22:53.099Z,78.80
2019-06-08T13:25:37.386Z,80.10
2019-06-08T13:27:58.320Z,81.40
2019-06-08T13:30:32.411Z,82.60
2019-06-08T13:33:03.106Z,79.70
2019-06-08T13:35:34.523Z,75.40
2019-06-08T13:38:05.585Z,71.90
2019-06-08T13:40:37.791Z,74.30
2019-06-08T13:43:11.231Z,74.60
2019-06-08T13:45:42.637Z,75.50
2019-06-08T13:48:14.039Z,76.10
2019-06-08T13:50:46.585Z,72.50
2019-06-08T13:53:24.385Z,71.30
2019-06-08T13:55:56.326Z,74.00
2019-06-08T13:58:31.628Z,74.50
2019-06-08T14:00:59.717Z,75.40
2019-06-08T14:03:30.533Z,73.50
2019-06-08T14:06:01.835Z,77.60
2019-06-08T14:08:33.784Z,76.20
2019-06-08T14:11:08.156Z,73.30
2019-06-08T14:13:38.211Z,73.70
2019-06-08T14:16:11.573Z,74.80
2019-06-08T14:18:45.315Z,77.10
2019-06-08T14:21:21.422Z,77.30
2019-06-08T14:23:49.862Z,71.70
2019-06-08T14:26:22.839Z,73.40
2019-06-08T14:28:55.011Z,75.80
2019-06-08T14:31:29.968Z,76.20
2019-06-08T14:33:59.816Z,71.40
2019-06-08T14:36:30.837Z,70.40
2019-06-08T14:39:02.791Z,75.20
2019-06-08T14:41:34.497Z,71.00
2019-06-08T14:44:08.268Z,70.50
2019-06-08T14:46:41.220Z,72.90
2019-06-08T14:49:12.663Z,75.40
2019-06-08T14:51:50.531Z,71.90
2019-06-08T14:54:27.141Z,69.60
2019-06-08T14:56:57.749Z,69.80
2019-06-08T14:59:31.636Z,72.20
2019-06-08T15:02:02.913Z,70.00
2019-06-08T15:04:36.949Z,70.50
2019-06-08T15:07:10.297Z,70.70
2019-06-08T15:09:41.812Z,70.00
2019-06-08T15:12:12.760Z,66.60
2019-06-08T15:14:44.055Z,69.00
2019-06-08T15:17:16.064Z,67.00
2019-06-08T15:19:47.718Z,66.80
2019-06-08T15:22:20.796Z,67.00
2019-06-08T15:24:52.449Z,66.10
2019-06-08T15:27:25.088Z,68.00
2019-06-08T15:29:58.618Z,65.20
2019-06-08T15:32:34.992Z,63.80
2019-06-08T15:35:03.843Z,65.30
2019-06-08T15:37:37.993Z,69.80
2019-06-08T15:40:09.382Z,67.30
2019-06-08T15:42:41.089Z,70.00
2019-06-08T15:45:13.208Z,64.80
2019-06-08T15:47:44.539Z,66.30
2019-06-08T15:50:17.932Z,65.40
2019-06-08T15:52:49.363Z,63.80
2019-06-08T15:55:20.691Z,62.00
2019-06-08T15:57:51.895Z,65.20
2019-06-08T16:00:23.227Z,62.70
2019-06-08T16:02:54.881Z,66.40
2019-06-08T16:05:25.901Z,68.00
2019-06-08T16:07:57.896Z,68.20
2019-06-08T16:10:30.274Z,63.90
2019-06-08T16:13:02.395Z,62.90
2019-06-08T16:15:35.356Z,63.70
2019-06-08T16:18:07.107Z,66.80
2019-06-08T16:20:39.095Z,65.70
2019-06-08T16:23:11.232Z,66.00
2019-06-08T16:25:42.756Z,63.70
2019-06-08T16:28:14.591Z,65.20
2019-06-08T16:30:46.318Z,62.30
2019-06-08T16:33:17.564Z,62.40
2019-06-08T16:35:49.389Z,63.40
2019-06-08T16:38:21.335Z,63.50
2019-06-08T16:40:52.919Z,64.40
2019-06-08T16:43:24.276Z,70.10
2019-06-08T16:45:55.884Z,67.70
2019-06-08T16:48:28.024Z,65.50
2019-06-08T16:50:59.641Z,64.40
2019-06-08T16:53:32.825Z,66.30
2019-06-08T16:56:05.451Z,65.50
2019-06-08T16:58:38.294Z,64.70
2019-06-08T17:01:09.221Z,63.20
2019-06-08T17:03:41.055Z,64.20
2019-06-08T17:06:12.895Z,64.50
2019-06-08T17:08:44.731Z,63.90
2019-06-08T17:11:17.083Z,66.50
2019-06-08T17:13:48.939Z,67.10
2019-06-08T17:16:20.502Z,62.40
2019-06-08T17:18:55.854Z,62.10
2019-06-08T17:21:25.910Z,65.00
2019-06-08T17:23:57.772Z,62.80
2019-06-08T17:26:30.527Z,64.30
2019-06-08T17:29:02.560Z,63.60
2019-06-08T17:31:35.151Z,63.00
2019-06-08T17:34:06.909Z,63.50
2019-06-08T17:36:39.105Z,63.40
2019-06-08T17:39:10.647Z,63.10
2019-06-08T17:41:43.220Z,63.50
2019-06-08T17:44:15.316Z,63.50
2019-06-08T17:46:46.496Z,63.40
2019-06-08T17:49:18.186Z,63.80
2019-06-08T17:51:50.338Z,65.80
2019-06-08T17:54:22.397Z,65.00
2019-06-08T17:56:54.554Z,66.50
2019-06-08T17:59:26.890Z,66.10
2019-06-08T18:01:58.603Z,67.30
2019-06-08T18:04:30.248Z,67.30
2019-06-08T18:09:33.831Z,64.80
2019-06-08T18:12:07.736Z,66.70
2019-06-08T18:14:42.001Z,66.40
2019-06-08T18:17:17.482Z,67.50
2019-06-08T18:19:52.988Z,67.50
2019-06-08T18:25:07.737Z,70.20
2019-06-08T18:27:43.591Z,69.00
2019-06-08T18:30:19.079Z,69.70
2019-06-08T18:32:51.756Z,70.30
2019-06-08T18:35:24.115Z,70.00
2019-06-08T18:37:57.782Z,70.10
2019-06-08T18:40:31.447Z,70.60
2019-06-08T18:43:12.067Z,72.00
2019-06-08T18:45:46.300Z,73.00
2019-06-08T18:48:20.730Z,72.50
2019-06-08T18:53:49.115Z,71.50
2019-06-08T18:56:10.299Z,71.80
2019-06-08T18:58:43.854Z,72.40
2019-06-08T19:01:21.557Z,73.30
2019-06-08T19:03:52.918Z,74.00
2019-06-08T19:12:01.441Z,76.80
2019-06-08T19:17:17.441Z,77.80
2019-06-08T19:19:52.392Z,78.40
2019-06-08T19:22:24.995Z,79.20
2019-06-08T19:24:57.536Z,79.90
2019-06-08T19:27:29.972Z,80.80
2019-06-08T19:30:01.968Z,82.20
2019-06-08T19:32:34.632Z,83.00
2019-06-08T19:35:07.352Z,83.40
2019-06-08T19:37:39.696Z,84.70
2019-06-08T19:40:13.289Z,85.40
2019-06-08T19:42:53.495Z,86.40
2019-06-08T19:45:19.723Z,87.30
2019-06-08T19:47:52.095Z,88.30
2019-06-08T19:50:23.695Z,89.10
2019-06-08T19:52:57.844Z,91.10
2019-06-08T19:55:28.652Z,92.50
2019-06-08T19:58:00.565Z,93.80
2019-06-08T20:00:32.168Z,94.50
2019-06-08T20:03:03.743Z,96.20
2019-06-08T20:05:37.535Z,99.90
2019-06-08T20:08:08.408Z,99.90
2019-06-08T20:10:41.080Z,99.90
2019-06-08T20:13:12.125Z,99.90
2019-06-08T20:15:47.365Z,99.90
2019-06-08T20:18:17.271Z,99.90
2019-06-08T20:20:52.455Z,99.90
2019-06-08T20:23:22.049Z,99.90
2019-06-08T20:25:53.404Z,99.90
2019-06-08T20:28:25.098Z,99.90
2019-06-08T20:30:57.909Z,99.90
2019-06-08T20:33:29.766Z,99.90
2019-06-08T20:36:01.731Z,99.90
2019-06-08T20:38:38.593Z,99.90
2019-06-08T20:41:07.602Z,99.90
2019-06-08T20:43:41.251Z,99.90
2019-06-08T20:46:12.004Z,99.90
2019-06-08T20:48:44.155Z,99.90
2019-06-08T20:51:17.232Z,99.90
2019-06-08T20:53:50.314Z,99.90
2019-06-08T20:56:21.696Z,99.90
2019-06-08T20:58:53.964Z,99.90
2019-06-08T21:01:25.943Z,99.90
2019-06-08T21:03:57.918Z,99.90
2019-06-08T21:06:29.874Z,99.90
2019-06-08T21:09:00.871Z,99.90
2019-06-08T21:11:32.500Z,99.90
2019-06-08T21:14:04.496Z,99.90
2019-06-08T21:16:35.497Z,99.90
2019-06-08T21:19:07.381Z,99.90
2019-06-08T21:21:38.627Z,99.90
2019-06-08T21:24:10.319Z,99.90
2019-06-08T21:26:42.001Z,99.90
2019-06-08T21:29:13.622Z,99.90
2019-06-08T21:31:44.944Z,99.90
2019-06-08T21:34:18.137Z,99.90
2019-06-08T21:36:51.455Z,99.90
2019-06-08T21:39:22.809Z,99.90
2019-06-08T21:41:57.521Z,99.90
2019-06-08T21:44:27.976Z,99.90
2019-06-08T21:47:01.444Z,99.90
2019-06-08T21:49:33.017Z,99.90
2019-06-08T21:52:04.612Z,99.90
2019-06-08T21:54:37.548Z,99.90
2019-06-08T21:57:09.722Z,99.90
2019-06-08T21:59:41.413Z,99.90
2019-06-08T22:02:13.469Z,99.90
2019-06-08T22:04:45.227Z,99.90
2019-06-08T22:07:17.742Z,99.90
2019-06-08T22:09:50.002Z,99.90
2019-06-08T22:12:21.187Z,99.90
2019-06-08T22:14:52.820Z,99.90
2019-06-08T22:17:27.609Z,99.90
2019-06-08T22:20:00.703Z,99.90
2019-06-08T22:22:31.774Z,99.90
2019-06-08T22:25:04.199Z,99.90
2019-06-08T22:27:38.241Z,99.90
2019-06-08T22:30:18.447Z,99.90
2019-06-08T22:32:44.557Z,99.90
2019-06-08T22:35:16.227Z,99.90
2019-06-08T22:37:48.037Z,99.90
2019-06-08T22:40:19.784Z,99.90
2019-06-08T22:42:50.800Z,99.90
2019-06-08T22:45:21.772Z,99.90
2019-06-08T22:47:54.511Z,99.90
2019-06-08T22:50:27.556Z,99.90
2019-06-08T22:53:00.651Z,99.90
2019-06-08T22:55:32.353Z,99.90
2019-06-08T22:58:04.687Z,99.90
2019-06-08T23:00:51.725Z,99.90
2019-06-08T23:03:10.085Z,99.90
2019-06-08T23:05:41.686Z,99.90
2019-06-08T23:08:12.982Z,99.90
2019-06-08T23:10:44.472Z,99.90
2019-06-08T23:13:17.758Z,99.90
2019-06-08T23:15:49.454Z,99.90
2019-06-08T23:18:21.049Z,99.90
2019-06-08T23:20:52.374Z,99.90
2019-06-08T23:23:24.126Z,99.90
2019-06-08T23:25:55.672Z,99.90
2019-06-08T23:28:28.280Z,99.90
2019-06-08T23:31:11.845Z,99.90
2019-06-08T23:33:33.003Z,99.90
2019-06-08T23:38:38.203Z,99.90
2019-06-08T23:41:10.174Z,99.90
2019-06-08T23:43:41.681Z,99.90
2019-06-08T23:46:12.318Z,99.90
2019-06-08T23:48:43.282Z,99.90
2019-06-08T23:51:14.592Z,99.90
2019-06-08T23:53:47.784Z,99.90
2019-06-08T23:56:19.520Z,99.90
2019-06-08T23:58:50.519Z,99.90
